KEVW

Evanston-Uinta County Burns Field Airport

Evanston, Wyoming, USA
METAR KEVW 211553Z AUTO 24009KT 1/2SM SN FZFG VV010 M02/M03 A2948 RMK AO2 SLP978 P0002 T10171033
Observed Flight Rules
Jan-21 @ 15:53 UTC (25 minutes ago) Instrument Flight Rules
Wind Visibility Clouds Conditions
240° at 9 knots 1/2 miles
  • Vertical visibility at 1,000' AGL
  • Snow
  • Freezing
  • Fog
Temperatures Readings Precipitation
Current -2°C / 28°F
Dewpoint -3°C / 27°F
Humidity 93%
Altimeter 29.48" Hg
Pressure 997.8 hPa
Elevation 2177
Current Rain 0.02
METAR KEVW 211553Z AUTO 24009KT 1/2SM SN FZFG VV010 M02/M03 A2948 RMK AO2 SLP978 P0002 T10171033
Observed Flight Rules
Jan-21 @ 15:53 UTC
(25 minutes ago)
LIFR
Wind Visibility
240° at 9 knots 1/2 miles
Clouds
  • Vertical visibility at 1,000' AGL
Conditions
  • Snow
  • Freezing
  • Fog
Temperature Dewpoint
-2°C / 28°F -3°C / 27°F
Humidity Altimeter Pressure
93% 29.48" Hg 997.8 hPa
Current Rain
0.02